AirNav   Pilot Hours Calculator
 
 1314 users online  

L36 Rio Linda Airport
Rio Linda, California, USA

GOING TO RIO LINDA?


FAA INFORMATION EFFECTIVE 07 NOVEMBER 2019

Location

FAA Identifier: L36
Lat/Long: 38-40-30.0000N 121-26-43.6000W
38-40.500000N 121-26.726667W
38.6750000,-121.4454444
(estimated)
Elevation: 46 ft. / 14 m (estimated)
Variation: 16E (1985)
From city: 1 mile S of RIO LINDA, CA
Time zone: UTC -8 (UTC -7 during Daylight Saving Time)
Zip code: 95673

Airport Operations

Airport use: Open to the public
Activation date: 11/1963
Control tower: no
ARTCC: OAKLAND CENTER
FSS: RANCHO MURIETA FLIGHT SERVICE STATION
NOTAMs facility: RIU (NOTAM-D service available)
Attendance: 0800-1700
Pattern altitude: 846 ft. MSL
Wind indicator: lighted
Segmented circle: yes
Lights: ACTVT LIRL RY 17/35 KEY 122.9 SEVEN TIMES.
Beacon: white-green (lighted land airport)
DUSK-2400

Airport Communications

CTAF/UNICOM: 123.0
WX AWOS-3 at MCC (2.1 nm E): 125.975 (916-641-1272)
WX ASOS at SMF (7 nm W): PHONE 916-649-3996
WX ASOS at SAC (10 nm S): PHONE 916-421-0923
WX AWOS-3 at MHR (10 nm SE): 118.325 (916-366-3371)
WX AWOS-3 at LHM (15 nm N): 124.25 (916-645-0698)
WX AWOS-3 at EDU (18 nm SW): 119.025 (530-754-6839)

Nearby radio navigation aids

VOR radial/distance  VOR name  Freq  Var
MCCr266/2.0MC CLELLAN VOR/DME109.2017E
SACr003/14.7SACRAMENTO VORTAC115.2017E
MYVr151/26.1MARYSVILLE VOR/DME110.8016E
HNWr248/32.7HANGTOWN VOR/DME115.5017E
ILAr113/36.1WILLIAMS VORTAC114.4018E

Airport Services

Fuel available: 100LL
Parking: tiedowns
Airframe service: MINOR
Powerplant service: MINOR
Bottled oxygen: NONE
Bulk oxygen: NONE

Runway Information

Runway 17/35

Dimensions: 2625 x 42 ft. / 800 x 13 m
Surface: asphalt, in good condition
Weight bearing capacity: 
Single wheel: 12.0
Runway edge lights: low intensity
Runway edge markings: RWY 17 /35 NSTD CNTRLN SPACING & WIDTH.
RUNWAY 17  RUNWAY 35
Latitude: 38-40.715420N38-40.283940N
Longitude: 121-26.707750W121-26.745973W
Elevation: 46.0 ft.43.7 ft.
Traffic pattern: rightleft
Markings: NSTD, in good conditionNSTD, in good condition
Runway end identifier lights: nono
Obstructions: 60 ft. trees, 915 ft. from runway, 225 ft. right of centerline, 11:1 slope to clear20 ft. trees, 384 ft. from runway, 50 ft. left of centerline, 9:1 slope to clear

Airport Ownership and Management from official FAA records

Ownership: Privately-owned
Owner: WILLIAM T MAUSER
931 E STREET
RIO LINDA, CA 95673
Phone 916-991-1725
Manager: WILLIAM T MAUSER
931 E STREET
RIO LINDA, CA 95673
Phone 916-991-1725

Airport Operational Statistics

Aircraft based on the field: 139
Single engine airplanes: 136
Multi engine airplanes: 3
    
Aircraft operations: avg 55/day *
50% transient general aviation
50% local general aviation
* for 12-month period ending 31 December 2018

Additional Remarks

TOUCH AND GO LANDINGS NOT AUTHORIZED.
ULTRALIGHTS NOT AUTHORIZED.
FOR NOISE ABATEMENT RY 17 RIGHT TURN TO HDG 215 DEG AFT TKOF TO AVOID OVERFLIGHT OF SCHOOL.
TREE LINES EAST, WEST & NORTH OF ARPT - UNLIGHTED.
FOR CD CTC NORCAL APCH AT 916-361-6874.

Instrument Procedures

There are no published instrument procedures at L36.

Some nearby airports with instrument procedures:

KMCC - Mc Clellan Airfield (2 nm E)
KSMF - Sacramento International Airport (7 nm W)
KSAC - Sacramento Executive Airport (10 nm S)
KMHR - Sacramento Mather Airport (10 nm SE)
KLHM - Lincoln Regional Airport/Karl Harder Field (15 nm N)
KEDU - University Airport (18 nm SW)
O41 - Watts-Woodland Airport (20 nm W)
 
Loc | Ops | Rwys | IFR | FBO | Links
Com | Nav | Svcs | Stats | Notes
Area around L36 (Rio Linda Airport)
 
Road maps at: MapQuest Bing Google
 
Aerial photo
WARNING: Photo may not be current or correct
Aerial photo of L36 (Rio Linda Airport)
Photo by Morisette
Photo taken 27-May-2006

Do you have a better or more recent aerial photo of Rio Linda Airport that you would like to share? If so, please send us your photo.

 
Sectional chart

 
Airport distance calculator
Flying to Rio Linda Airport? Find the distance to fly.

From to L36

Sunrise and sunset
Times for 20-Nov-2019
 Local
(UTC-8)
 Zulu
(UTC)
Morning civil twilight06:2614:26
Sunrise06:5514:55
Sunset16:4800:48
Evening civil twilight17:1701:17

Current date and time
Zulu (UTC)  21-Nov-2019 00:42:58
Local (UTC-8)  20-Nov-2019 16:42:58
 
METAR
KMCC 
2nm E 
210015Z AUTO 35018KT 10SM CLR 19/M01 A2948 RMK AO2
KSMF 
7nm W 
202353Z 36016G22KT 10SM FEW250 20/00 A2948 RMK AO2 PK WND 02029/2303 SLP982 T02000000 10222 20167 55004
KSAC 
11nm S 
202353Z 36019KT 10SM CLR 20/M01 A2948 RMK AO2 PK WND 34028/2308 SLP982 T02001011 10222 20161 55000
KMHR 
11nm SE 
202348Z 33018G23KT 10SM FEW200 19/M01 A2945
KLHM 
15nm N 
210015Z AUTO 35014G21KT 10SM CLR 18/00 A2947 RMK AO1
KEDU 
18nm SW 
210015Z AUTO 34012G18KT 10SM CLR 19/M01 A2950 RMK AO1
TAF
KMCC 
2nm E 
201737Z 2018/2118 33020G27KT P6SM SCT200 BKN250 FM210000 35015G22KT P6SM SKC FM210300 35010KT P6SM SKC FM210600 VRB04KT P6SM FEW250
KSMF 
7nm W 
201737Z 2018/2118 34024G34KT P6SM SCT200 BKN250 FM210000 35018G25KT P6SM SKC FM210300 35012KT P6SM SKC FM210900 34008KT P6SM FEW250
KSAC 
11nm S 
201737Z 2018/2118 33021G29KT P6SM SCT200 BKN250 FM210200 33012KT P6SM SKC FM210900 34006KT P6SM FEW250
KMHR 
11nm SE 
201737Z 2018/2118 33020G27KT P6SM SCT200 BKN250 FM210200 35012KT P6SM SKC FM210600 VRB05KT P6SM FEW250
NOTAMs
Click for the latest NOTAMs
NOTAMs are issued by the DoD/FAA and will open in a separate window not controlled by AirNav.

 

 
 

FBO, Fuel Providers, and Aircraft Ground Support

  
 Business Name 
 
 Contact 
 
 Services / Description 
 
Fuel Prices
 
Comments
  
Mauser Aviation 916-991-1725
no information available

If you are affiliated with Mauser Aviation and would like to show here your services, contact info, web link, logo, and more, click here
100LL
SS $4.99 
 Updated 09-Oct-2019
 
   write
SS=Self service
Update Fuel Prices
 

Would you like to see your business listed on this page?

 If your business provides an interesting product or service to pilots, flight crews, aircraft, or users of the Rio Linda Airport, you should consider listing it here.  To start the listing process, click on the button below
 
Add a business
 

Other Pages about Rio Linda Airport

Update a link
 
Copyright © AirNav, LLC. All rights reserved. Privacy Policy  Contact